Grant Town, West Virginia
Current Conditions -  °F | °C
As of 11:53 AM on Wednesday 22 Oct 2014 (Local Time) from KMGW Reporting Station
Overcast Overcast  
Wind Chill: 50°   Ceiling: 1300
Heat Index: 50°   Visibility: 10mi
Dew Point: 43°   Wind: 5mph
Humidity: 77%   Direction: NA
Pressure: 30.15"   Gusts: NA
Location:  39.56°N, 80.18°W
Report Text: KMGW 221553Z VRB04KT 10SM OVC013 10/06 A3015 RMK AO2 SLP213 T01000061
Loading
Personal Weather Stations






























Interactive Weather Map
Tropical Storm Tracking
New forecast layout! Learn more

10-Day Weather Forecast

Advertisements
Track Severe Weather on mobile